createdAt,value
2018-12-16T00:11:08.631Z,-1.4
2018-12-16T00:27:40.252Z,-1.4
2018-12-16T00:44:12.045Z,-1.1
2018-12-16T01:00:43.830Z,-1.1
2018-12-16T01:17:15.822Z,-0.8
2018-12-16T01:33:47.726Z,-0.8
2018-12-16T01:50:19.947Z,-0.8
2018-12-16T02:06:51.980Z,-0.8
2018-12-16T02:23:23.943Z,-0.8
2018-12-16T02:39:56.258Z,-0.8
2018-12-16T02:56:28.184Z,-0.5
2018-12-16T03:13:00.424Z,-0.5
2018-12-16T03:29:32.693Z,-0.5
2018-12-16T03:46:05.070Z,-0.2
2018-12-16T04:02:38.865Z,-0.2
2018-12-16T04:19:10.090Z,-0.2
2018-12-16T04:35:42.764Z,0.2
2018-12-16T04:52:15.315Z,0.2
2018-12-16T05:08:47.798Z,0.2
2018-12-16T05:25:20.393Z,-0.2
2018-12-16T05:41:52.950Z,-0.2
2018-12-16T05:58:25.279Z,-0.5
2018-12-16T06:14:58.100Z,-0.5
2018-12-16T06:31:29.864Z,-0.5
2018-12-16T06:48:02.147Z,-0.5
2018-12-16T07:04:34.690Z,-0.5
2018-12-16T07:21:06.766Z,-0.5
2018-12-16T07:37:39.083Z,-0.5
2018-12-16T07:54:16.022Z,-0.5
2018-12-16T08:10:43.781Z,-0.5
2018-12-16T08:27:16.204Z,-0.5
2018-12-16T08:43:48.605Z,-0.2
2018-12-16T09:00:21.135Z,-0.2
2018-12-16T09:16:53.728Z,-0.2
2018-12-16T09:33:26.086Z,-0.2
2018-12-16T09:49:58.667Z,-0.2
2018-12-16T10:06:31.444Z,0.2
2018-12-16T10:23:04.070Z,0.5
2018-12-16T10:39:36.840Z,0.5
2018-12-16T10:56:09.523Z,0.5
2018-12-16T11:12:42.347Z,0.5
2018-12-16T11:29:15.722Z,1.1
2018-12-16T11:45:49.203Z,0.8
2018-12-16T12:02:22.675Z,1.1
2018-12-16T12:18:55.973Z,1.1
2018-12-16T12:35:29.385Z,1.1
2018-12-16T12:52:02.829Z,1.1
2018-12-16T13:08:36.376Z,1.1
2018-12-16T13:25:09.773Z,1.1
2018-12-16T13:41:43.339Z,1.4
2018-12-16T13:58:16.781Z,1.4
2018-12-16T14:14:50.498Z,1.4
2018-12-16T14:31:24.060Z,1.4
2018-12-16T14:47:57.814Z,1.8
2018-12-16T15:04:31.659Z,1.8
2018-12-16T15:21:05.573Z,1.8
2018-12-16T15:37:39.726Z,1.8
2018-12-16T15:54:13.425Z,1.8
2018-12-16T16:10:47.235Z,1.4
2018-12-16T16:27:21.066Z,1.8
2018-12-16T16:43:55.195Z,1.8
2018-12-16T17:00:29.135Z,1.8
2018-12-16T17:17:03.010Z,1.8
2018-12-16T17:33:37.008Z,1.8
2018-12-16T17:50:11.116Z,2.1
2018-12-16T18:06:44.965Z,2.1
2018-12-16T18:23:18.598Z,2.1
2018-12-16T18:39:52.425Z,2.1
2018-12-16T18:56:26.241Z,2.4
2018-12-16T19:13:00.086Z,2.4
2018-12-16T19:29:34.167Z,2.4
2018-12-16T19:46:08.205Z,2.4
2018-12-16T20:02:42.185Z,2.4
2018-12-16T20:19:16.316Z,2.4
2018-12-16T20:35:50.217Z,2.4
2018-12-16T20:52:24.305Z,2.4
2018-12-16T21:08:58.273Z,2.7
2018-12-16T21:25:32.424Z,3.0
2018-12-16T21:42:06.771Z,3.0
2018-12-16T21:58:41.218Z,3.4
2018-12-16T22:15:15.798Z,3.4
2018-12-16T22:31:50.349Z,3.4
2018-12-16T22:48:24.926Z,3.4
2018-12-16T23:04:59.424Z,3.0
2018-12-16T23:21:33.831Z,3.0
2018-12-16T23:38:08.216Z,3.0
2018-12-16T23:54:42.620Z,3.0
